Country
Station

 

Weather  for  Raleigh/Durham, Raleigh-Durham International Airport  -  United States    United States

  
6 °C (43 °F)
    
 
 

Current METAR for Raleigh/Durham, Raleigh-Durham International Airport is :

KRDU 111851Z 30006KT 10SM FEW250 06/M07 A3013 RMK AO2 SLP206 T00611072

 

This is a report for Raleigh/Durham, Raleigh-Durham International Airport - United States.
 
The report was made 35 minutes ago, at 18:51 UTC .
The wind was blowing at a speed of 3.1 meters per second (6.9 miles per hour) from west/northwest (300°).
 
The temperature was 6 °C (43 °F), with a dew-point at -7 °C (19 °F).
The atmospheric pressure was 1020 hPa (30.13 inHg).
The relative humidity was 38.6%.
 
There were a few clouds at a height of 7620 meters (25000 feet).
 
The overall visibility was 16.1 kilometers (10.0 miles).
 

 
 
 
 

Country :   A   B   C   D   E   F   G   H   I   J   K   L   M   N   O   P   Q   R   S   T   U   V   W   Y   Z

 

Site Info  |  Disclaimer  |  Credits  |  Privacy
Contact us  |  Add to favorites
© 2013-2018 METARs - All rights reserved